sensor_id;sensor_type;location;lat;lon;timestamp;temperature;humidity
3868;DHT22;1949;48.152;11.528;2022-11-24T00:01:23;11.70;47.90
3868;DHT22;1949;48.152;11.528;2022-11-24T00:03:56;11.70;48.10
3868;DHT22;1949;48.152;11.528;2022-11-24T00:06:25;11.60;48.10
3868;DHT22;1949;48.152;11.528;2022-11-24T00:08:51;11.70;48.80
3868;DHT22;1949;48.152;11.528;2022-11-24T00:11:22;11.70;48.10
3868;DHT22;1949;48.152;11.528;2022-11-24T00:13:48;11.80;48.70
3868;DHT22;1949;48.152;11.528;2022-11-24T00:16:19;11.80;48.20
3868;DHT22;1949;48.152;11.528;2022-11-24T00:18:47;11.80;48.20
3868;DHT22;1949;48.152;11.528;2022-11-24T00:21:14;11.80;48.20
3868;DHT22;1949;48.152;11.528;2022-11-24T00:23:41;11.80;48.20
3868;DHT22;1949;48.152;11.528;2022-11-24T00:26:12;11.80;48.20
3868;DHT22;1949;48.152;11.528;2022-11-24T00:28:38;11.90;48.30
3868;DHT22;1949;48.152;11.528;2022-11-24T00:31:21;11.80;48.10
3868;DHT22;1949;48.152;11.528;2022-11-24T00:33:49;11.90;48.20
3868;DHT22;1949;48.152;11.528;2022-11-24T00:36:16;11.80;48.00
3868;DHT22;1949;48.152;11.528;2022-11-24T00:38:43;11.80;48.20
3868;DHT22;1949;48.152;11.528;2022-11-24T00:41:09;12.00;48.40
3868;DHT22;1949;48.152;11.528;2022-11-24T00:43:39;11.90;48.30
3868;DHT22;1949;48.152;11.528;2022-11-24T00:46:06;11.90;48.30
3868;DHT22;1949;48.152;11.528;2022-11-24T00:48:33;11.90;48.20
3868;DHT22;1949;48.152;11.528;2022-11-24T00:51:02;11.90;48.30
3868;DHT22;1949;48.152;11.528;2022-11-24T00:53:29;12.00;48.40
3868;DHT22;1949;48.152;11.528;2022-11-24T00:55:55;12.00;48.40
3868;DHT22;1949;48.152;11.528;2022-11-24T00:58:21;12.00;48.30
3868;DHT22;1949;48.152;11.528;2022-11-24T01:00:51;12.00;48.30
3868;DHT22;1949;48.152;11.528;2022-11-24T01:03:19;12.00;48.30
3868;DHT22;1949;48.152;11.528;2022-11-24T01:05:47;12.00;48.20
3868;DHT22;1949;48.152;11.528;2022-11-24T01:08:13;12.10;48.30
3868;DHT22;1949;48.152;11.528;2022-11-24T01:10:38;12.10;48.30
3868;DHT22;1949;48.152;11.528;2022-11-24T01:13:05;12.20;48.40
3868;DHT22;1949;48.152;11.528;2022-11-24T01:15:34;12.10;48.20
3868;DHT22;1949;48.152;11.528;2022-11-24T01:18:00;12.00;48.10
3868;DHT22;1949;48.152;11.528;2022-11-24T01:20:25;12.00;48.10
3868;DHT22;1949;48.152;11.528;2022-11-24T01:22:51;12.00;48.70
3868;DHT22;1949;48.152;11.528;2022-11-24T01:25:18;11.90;48.20
3868;DHT22;1949;48.152;11.528;2022-11-24T01:27:45;11.90;48.20
3868;DHT22;1949;48.152;11.528;2022-11-24T01:30:11;11.90;48.40
3868;DHT22;1949;48.152;11.528;2022-11-24T01:32:37;11.90;48.30
3868;DHT22;1949;48.152;11.528;2022-11-24T01:35:04;11.90;48.30
3868;DHT22;1949;48.152;11.528;2022-11-24T01:37:31;11.90;48.30
3868;DHT22;1949;48.152;11.528;2022-11-24T01:39:57;11.90;48.40
3868;DHT22;1949;48.152;11.528;2022-11-24T01:42:22;12.00;48.40
3868;DHT22;1949;48.152;11.528;2022-11-24T01:47:57;11.90;48.30
3868;DHT22;1949;48.152;11.528;2022-11-24T01:50:24;11.90;48.40
3868;DHT22;1949;48.152;11.528;2022-11-24T01:52:53;11.90;48.40
3868;DHT22;1949;48.152;11.528;2022-11-24T01:55:28;12.00;48.50
3868;DHT22;1949;48.152;11.528;2022-11-24T01:58:12;11.90;48.30
3868;DHT22;1949;48.152;11.528;2022-11-24T02:00:41;11.90;48.30
3868;DHT22;1949;48.152;11.528;2022-11-24T02:03:09;11.90;48.30
3868;DHT22;1949;48.152;11.528;2022-11-24T02:05:50;11.90;48.40
3868;DHT22;1949;48.152;11.528;2022-11-24T02:10:55;11.90;48.30
3868;DHT22;1949;48.152;11.528;2022-11-24T02:13:22;11.80;48.30
3868;DHT22;1949;48.152;11.528;2022-11-24T02:15:52;11.80;48.20
3868;DHT22;1949;48.152;11.528;2022-11-24T02:18:17;11.90;48.50
3868;DHT22;1949;48.152;11.528;2022-11-24T02:20:43;11.80;48.20
3868;DHT22;1949;48.152;11.528;2022-11-24T02:26:03;11.70;48.40
3868;DHT22;1949;48.152;11.528;2022-11-24T02:28:33;11.80;48.50
3868;DHT22;1949;48.152;11.528;2022-11-24T02:30:59;11.70;48.40
3868;DHT22;1949;48.152;11.528;2022-11-24T02:33:26;11.70;48.40
3868;DHT22;1949;48.152;11.528;2022-11-24T02:35:54;11.70;48.50
3868;DHT22;1949;48.152;11.528;2022-11-24T02:38:29;11.70;48.40
3868;DHT22;1949;48.152;11.528;2022-11-24T02:40:55;11.90;48.70
3868;DHT22;1949;48.152;11.528;2022-11-24T02:43:22;11.70;48.40
3868;DHT22;1949;48.152;11.528;2022-11-24T02:45:49;11.70;48.40
3868;DHT22;1949;48.152;11.528;2022-11-24T02:48:15;11.70;48.60
3868;DHT22;1949;48.152;11.528;2022-11-24T02:50:42;11.70;48.60
3868;DHT22;1949;48.152;11.528;2022-11-24T02:53:08;11.70;48.60
3868;DHT22;1949;48.152;11.528;2022-11-24T02:55:33;11.80;48.70
3868;DHT22;1949;48.152;11.528;2022-11-24T02:58:15;11.70;48.50
3868;DHT22;1949;48.152;11.528;2022-11-24T03:00:41;11.70;48.60
3868;DHT22;1949;48.152;11.528;2022-11-24T03:03:07;11.70;48.60
3868;DHT22;1949;48.152;11.528;2022-11-24T03:05:32;11.70;48.60
3868;DHT22;1949;48.152;11.528;2022-11-24T03:07:58;11.70;48.60
3868;DHT22;1949;48.152;11.528;2022-11-24T03:10:25;11.70;48.60
3868;DHT22;1949;48.152;11.528;2022-11-24T03:12:51;11.70;48.60
3868;DHT22;1949;48.152;11.528;2022-11-24T03:15:21;11.70;48.60
3868;DHT22;1949;48.152;11.528;2022-11-24T03:17:48;11.70;48.70
3868;DHT22;1949;48.152;11.528;2022-11-24T03:20:14;11.80;48.80
3868;DHT22;1949;48.152;11.528;2022-11-24T03:22:40;11.80;48.70
3868;DHT22;1949;48.152;11.528;2022-11-24T03:25:07;11.80;48.60
3868;DHT22;1949;48.152;11.528;2022-11-24T03:27:42;11.70;48.70
3868;DHT22;1949;48.152;11.528;2022-11-24T03:30:09;11.80;48.80
3868;DHT22;1949;48.152;11.528;2022-11-24T03:32:39;11.80;48.80
3868;DHT22;1949;48.152;11.528;2022-11-24T03:35:08;11.80;48.90
3868;DHT22;1949;48.152;11.528;2022-11-24T03:37:33;11.80;48.90
3868;DHT22;1949;48.152;11.528;2022-11-24T03:40:01;11.90;49.10
3868;DHT22;1949;48.152;11.528;2022-11-24T03:42:33;11.90;49.00
3868;DHT22;1949;48.152;11.528;2022-11-24T03:44:59;11.90;48.80
3868;DHT22;1949;48.152;11.528;2022-11-24T03:47:25;11.90;48.80
3868;DHT22;1949;48.152;11.528;2022-11-24T03:49:50;12.00;48.90
3868;DHT22;1949;48.152;11.528;2022-11-24T03:52:16;12.00;48.90
3868;DHT22;1949;48.152;11.528;2022-11-24T03:54:42;12.00;48.70
3868;DHT22;1949;48.152;11.528;2022-11-24T03:57:07;12.00;48.80
3868;DHT22;1949;48.152;11.528;2022-11-24T03:59:33;12.10;48.90
3868;DHT22;1949;48.152;11.528;2022-11-24T04:02:06;12.20;48.90
3868;DHT22;1949;48.152;11.528;2022-11-24T04:04:34;12.20;48.90
3868;DHT22;1949;48.152;11.528;2022-11-24T04:06:59;12.00;48.90
3868;DHT22;1949;48.152;11.528;2022-11-24T04:09:25;12.10;48.90
3868;DHT22;1949;48.152;11.528;2022-11-24T04:11:53;12.10;48.80
3868;DHT22;1949;48.152;11.528;2022-11-24T04:14:38;12.00;48.80
3868;DHT22;1949;48.152;11.528;2022-11-24T04:17:04;12.10;48.90
3868;DHT22;1949;48.152;11.528;2022-11-24T04:19:30;12.10;48.80
3868;DHT22;1949;48.152;11.528;2022-11-24T04:22:03;12.10;48.90
3868;DHT22;1949;48.152;11.528;2022-11-24T04:24:28;12.10;49.00
3868;DHT22;1949;48.152;11.528;2022-11-24T04:26:54;12.10;48.90
3868;DHT22;1949;48.152;11.528;2022-11-24T04:29:23;12.10;48.90
3868;DHT22;1949;48.152;11.528;2022-11-24T04:31:52;12.20;49.00
3868;DHT22;1949;48.152;11.528;2022-11-24T04:34:17;12.10;49.00
3868;DHT22;1949;48.152;11.528;2022-11-24T04:36:50;12.10;49.00
3868;DHT22;1949;48.152;11.528;2022-11-24T04:39:16;12.10;48.90
3868;DHT22;1949;48.152;11.528;2022-11-24T04:41:42;12.10;48.90
3868;DHT22;1949;48.152;11.528;2022-11-24T04:44:07;12.10;48.80
3868;DHT22;1949;48.152;11.528;2022-11-24T04:46:33;12.10;48.90
3868;DHT22;1949;48.152;11.528;2022-11-24T04:48:59;12.10;48.90
3868;DHT22;1949;48.152;11.528;2022-11-24T04:51:25;12.10;48.90
3868;DHT22;1949;48.152;11.528;2022-11-24T04:53:51;12.10;48.90
3868;DHT22;1949;48.152;11.528;2022-11-24T04:56:17;12.10;48.90
3868;DHT22;1949;48.152;11.528;2022-11-24T04:58:42;12.10;48.90
3868;DHT22;1949;48.152;11.528;2022-11-24T05:01:08;12.20;49.00
3868;DHT22;1949;48.152;11.528;2022-11-24T05:03:35;12.10;49.00
3868;DHT22;1949;48.152;11.528;2022-11-24T05:06:01;12.10;49.10
3868;DHT22;1949;48.152;11.528;2022-11-24T05:08:28;12.10;49.00
3868;DHT22;1949;48.152;11.528;2022-11-24T05:11:06;12.10;49.00
3868;DHT22;1949;48.152;11.528;2022-11-24T05:13:33;12.10;49.00
3868;DHT22;1949;48.152;11.528;2022-11-24T05:15:59;12.10;49.00
3868;DHT22;1949;48.152;11.528;2022-11-24T05:18:26;12.10;49.10
3868;DHT22;1949;48.152;11.528;2022-11-24T05:20:51;12.10;49.10
3868;DHT22;1949;48.152;11.528;2022-11-24T05:23:19;12.10;49.10
3868;DHT22;1949;48.152;11.528;2022-11-24T05:25:46;12.10;49.10
3868;DHT22;1949;48.152;11.528;2022-11-24T05:28:12;12.10;49.20
3868;DHT22;1949;48.152;11.528;2022-11-24T05:30:38;12.00;49.10
3868;DHT22;1949;48.152;11.528;2022-11-24T05:33:05;12.00;49.10
3868;DHT22;1949;48.152;11.528;2022-11-24T05:35:36;12.00;49.10
3868;DHT22;1949;48.152;11.528;2022-11-24T05:38:03;12.00;49.20
3868;DHT22;1949;48.152;11.528;2022-11-24T05:40:30;12.00;49.30
3868;DHT22;1949;48.152;11.528;2022-11-24T05:42:56;12.00;49.30
3868;DHT22;1949;48.152;11.528;2022-11-24T05:45:24;12.00;49.20
3868;DHT22;1949;48.152;11.528;2022-11-24T05:47:50;12.00;49.30
3868;DHT22;1949;48.152;11.528;2022-11-24T05:50:18;11.90;49.20
3868;DHT22;1949;48.152;11.528;2022-11-24T05:52:45;11.90;49.30
3868;DHT22;1949;48.152;11.528;2022-11-24T05:55:11;11.90;49.40
3868;DHT22;1949;48.152;11.528;2022-11-24T05:57:40;11.90;49.50
3868;DHT22;1949;48.152;11.528;2022-11-24T06:00:06;11.90;49.50
3868;DHT22;1949;48.152;11.528;2022-11-24T06:02:33;11.90;49.50
3868;DHT22;1949;48.152;11.528;2022-11-24T06:04:58;12.00;49.50
3868;DHT22;1949;48.152;11.528;2022-11-24T06:07:24;11.90;49.30
3868;DHT22;1949;48.152;11.528;2022-11-24T06:09:50;12.00;49.50
3868;DHT22;1949;48.152;11.528;2022-11-24T06:12:15;12.00;49.50
3868;DHT22;1949;48.152;11.528;2022-11-24T06:14:41;12.00;49.50
3868;DHT22;1949;48.152;11.528;2022-11-24T06:17:09;12.00;49.50
3868;DHT22;1949;48.152;11.528;2022-11-24T06:19:35;12.00;49.40
3868;DHT22;1949;48.152;11.528;2022-11-24T06:22:01;12.00;49.50
3868;DHT22;1949;48.152;11.528;2022-11-24T06:24:26;12.00;49.50
3868;DHT22;1949;48.152;11.528;2022-11-24T06:26:52;12.00;49.40
3868;DHT22;1949;48.152;11.528;2022-11-24T06:29:18;12.10;49.50
3868;DHT22;1949;48.152;11.528;2022-11-24T06:31:43;12.20;49.60
3868;DHT22;1949;48.152;11.528;2022-11-24T06:34:09;12.10;49.50
3868;DHT22;1949;48.152;11.528;2022-11-24T06:36:37;12.10;49.40
3868;DHT22;1949;48.152;11.528;2022-11-24T06:39:03;12.10;49.30
3868;DHT22;1949;48.152;11.528;2022-11-24T06:41:32;12.10;49.30
3868;DHT22;1949;48.152;11.528;2022-11-24T06:43:57;12.10;49.30
3868;DHT22;1949;48.152;11.528;2022-11-24T06:46:23;12.10;49.30
3868;DHT22;1949;48.152;11.528;2022-11-24T06:48:52;12.00;49.10
3868;DHT22;1949;48.152;11.528;2022-11-24T06:51:18;12.10;49.40
3868;DHT22;1949;48.152;11.528;2022-11-24T06:53:44;12.00;49.30
3868;DHT22;1949;48.152;11.528;2022-11-24T06:56:12;12.00;49.30
3868;DHT22;1949;48.152;11.528;2022-11-24T06:58:40;12.00;49.40
3868;DHT22;1949;48.152;11.528;2022-11-24T07:01:06;12.10;49.50
3868;DHT22;1949;48.152;11.528;2022-11-24T07:03:32;12.10;49.40
3868;DHT22;1949;48.152;11.528;2022-11-24T07:05:58;12.10;49.40
3868;DHT22;1949;48.152;11.528;2022-11-24T07:08:24;12.10;49.30
3868;DHT22;1949;48.152;11.528;2022-11-24T07:10:51;12.20;49.40
3868;DHT22;1949;48.152;11.528;2022-11-24T07:13:19;12.00;49.20
3868;DHT22;1949;48.152;11.528;2022-11-24T07:15:46;12.00;49.30
3868;DHT22;1949;48.152;11.528;2022-11-24T07:18:12;12.10;49.40
3868;DHT22;1949;48.152;11.528;2022-11-24T07:20:37;12.00;49.40
3868;DHT22;1949;48.152;11.528;2022-11-24T07:23:04;12.10;49.50
3868;DHT22;1949;48.152;11.528;2022-11-24T07:25:34;12.20;49.50
3868;DHT22;1949;48.152;11.528;2022-11-24T07:28:00;12.20;49.30
3868;DHT22;1949;48.152;11.528;2022-11-24T07:30:27;12.20;49.20
3868;DHT22;1949;48.152;11.528;2022-11-24T07:33:02;12.20;49.20
3868;DHT22;1949;48.152;11.528;2022-11-24T07:35:28;12.20;49.30
3868;DHT22;1949;48.152;11.528;2022-11-24T07:37:59;12.20;49.30
3868;DHT22;1949;48.152;11.528;2022-11-24T07:40:26;12.20;49.30
3868;DHT22;1949;48.152;11.528;2022-11-24T07:42:52;12.30;49.30
3868;DHT22;1949;48.152;11.528;2022-11-24T07:45:18;12.20;49.10
3868;DHT22;1949;48.152;11.528;2022-11-24T07:47:44;12.20;49.10
3868;DHT22;1949;48.152;11.528;2022-11-24T07:50:12;12.20;49.10
3868;DHT22;1949;48.152;11.528;2022-11-24T07:52:39;12.20;49.00
3868;DHT22;1949;48.152;11.528;2022-11-24T07:55:05;12.20;49.10
3868;DHT22;1949;48.152;11.528;2022-11-24T07:57:32;12.20;49.10
3868;DHT22;1949;48.152;11.528;2022-11-24T07:59:57;12.20;49.10
3868;DHT22;1949;48.152;11.528;2022-11-24T08:02:23;12.10;49.00
3868;DHT22;1949;48.152;11.528;2022-11-24T08:04:50;12.10;49.10
3868;DHT22;1949;48.152;11.528;2022-11-24T08:07:16;12.00;49.10
3868;DHT22;1949;48.152;11.528;2022-11-24T08:09:42;12.10;49.30
3868;DHT22;1949;48.152;11.528;2022-11-24T08:12:09;12.10;49.20
3868;DHT22;1949;48.152;11.528;2022-11-24T08:14:34;12.10;49.10
3868;DHT22;1949;48.152;11.528;2022-11-24T08:17:01;12.00;49.00
3868;DHT22;1949;48.152;11.528;2022-11-24T08:19:28;12.10;49.10
3868;DHT22;1949;48.152;11.528;2022-11-24T08:21:53;12.10;49.10
3868;DHT22;1949;48.152;11.528;2022-11-24T08:24:19;12.10;48.90
3868;DHT22;1949;48.152;11.528;2022-11-24T08:26:47;12.10;49.60
3868;DHT22;1949;48.152;11.528;2022-11-24T08:29:13;12.10;49.10
3868;DHT22;1949;48.152;11.528;2022-11-24T08:31:40;12.10;49.00
3868;DHT22;1949;48.152;11.528;2022-11-24T08:34:06;12.10;48.90
3868;DHT22;1949;48.152;11.528;2022-11-24T08:36:32;12.10;48.90
3868;DHT22;1949;48.152;11.528;2022-11-24T08:39:02;12.10;48.90
3868;DHT22;1949;48.152;11.528;2022-11-24T08:41:28;12.10;48.90
3868;DHT22;1949;48.152;11.528;2022-11-24T08:43:55;12.20;49.00
3868;DHT22;1949;48.152;11.528;2022-11-24T08:46:37;12.20;49.00
3868;DHT22;1949;48.152;11.528;2022-11-24T08:49:02;12.30;49.00
3868;DHT22;1949;48.152;11.528;2022-11-24T08:51:29;12.30;48.90
3868;DHT22;1949;48.152;11.528;2022-11-24T08:53:57;12.30;48.80
3868;DHT22;1949;48.152;11.528;2022-11-24T08:56:27;12.30;48.70
3868;DHT22;1949;48.152;11.528;2022-11-24T08:58:54;12.30;48.70
3868;DHT22;1949;48.152;11.528;2022-11-24T09:01:20;12.40;48.80
3868;DHT22;1949;48.152;11.528;2022-11-24T09:03:48;12.40;48.60
3868;DHT22;1949;48.152;11.528;2022-11-24T09:06:14;12.40;48.60
3868;DHT22;1949;48.152;11.528;2022-11-24T09:08:40;12.40;48.70
3868;DHT22;1949;48.152;11.528;2022-11-24T09:11:13;12.40;48.70
3868;DHT22;1949;48.152;11.528;2022-11-24T09:13:39;12.40;48.70
3868;DHT22;1949;48.152;11.528;2022-11-24T09:16:11;12.40;48.60
3868;DHT22;1949;48.152;11.528;2022-11-24T09:18:37;12.40;48.50
3868;DHT22;1949;48.152;11.528;2022-11-24T09:21:17;12.40;48.40
3868;DHT22;1949;48.152;11.528;2022-11-24T09:23:46;12.40;48.40
3868;DHT22;1949;48.152;11.528;2022-11-24T09:26:21;12.50;48.60
3868;DHT22;1949;48.152;11.528;2022-11-24T09:28:49;12.50;48.50
3868;DHT22;1949;48.152;11.528;2022-11-24T09:31:20;12.50;48.50
3868;DHT22;1949;48.152;11.528;2022-11-24T09:33:46;12.60;48.50
3868;DHT22;1949;48.152;11.528;2022-11-24T09:36:13;12.60;48.50
3868;DHT22;1949;48.152;11.528;2022-11-24T09:38:39;12.60;48.40
3868;DHT22;1949;48.152;11.528;2022-11-24T09:49:42;12.60;48.40
3868;DHT22;1949;48.152;11.528;2022-11-24T09:52:14;12.60;48.30
3868;DHT22;1949;48.152;11.528;2022-11-24T09:54:50;12.60;48.40
3868;DHT22;1949;48.152;11.528;2022-11-24T09:57:18;12.70;48.30
3868;DHT22;1949;48.152;11.528;2022-11-24T09:59:46;12.70;48.30
3868;DHT22;1949;48.152;11.528;2022-11-24T10:02:12;12.70;48.20
3868;DHT22;1949;48.152;11.528;2022-11-24T10:04:41;12.70;48.10
3868;DHT22;1949;48.152;11.528;2022-11-24T10:07:21;12.80;48.10
3868;DHT22;1949;48.152;11.528;2022-11-24T10:09:58;12.80;48.10
3868;DHT22;1949;48.152;11.528;2022-11-24T10:15:18;12.90;48.10
3868;DHT22;1949;48.152;11.528;2022-11-24T10:25:53;12.80;48.00
3868;DHT22;1949;48.152;11.528;2022-11-24T10:28:21;12.70;48.00
3868;DHT22;1949;48.152;11.528;2022-11-24T10:30:48;12.70;48.00
3868;DHT22;1949;48.152;11.528;2022-11-24T10:33:19;12.60;48.10
3868;DHT22;1949;48.152;11.528;2022-11-24T10:35:54;12.60;48.00
3868;DHT22;1949;48.152;11.528;2022-11-24T10:38:36;12.50;48.30
3868;DHT22;1949;48.152;11.528;2022-11-24T10:41:40;12.50;48.20
3868;DHT22;1949;48.152;11.528;2022-11-24T10:44:13;12.40;48.40
3868;DHT22;1949;48.152;11.528;2022-11-24T10:46:40;12.40;48.60
3868;DHT22;1949;48.152;11.528;2022-11-24T10:49:06;12.40;48.60
3868;DHT22;1949;48.152;11.528;2022-11-24T10:51:55;12.40;48.60
3868;DHT22;1949;48.152;11.528;2022-11-24T10:54:25;12.30;48.80
3868;DHT22;1949;48.152;11.528;2022-11-24T10:56:52;12.30;48.70
3868;DHT22;1949;48.152;11.528;2022-11-24T10:59:34;12.30;48.80
3868;DHT22;1949;48.152;11.528;2022-11-24T11:02:02;12.30;48.90
3868;DHT22;1949;48.152;11.528;2022-11-24T11:04:33;12.30;49.00
3868;DHT22;1949;48.152;11.528;2022-11-24T11:07:17;12.30;49.00
3868;DHT22;1949;48.152;11.528;2022-11-24T11:09:44;12.20;48.80
3868;DHT22;1949;48.152;11.528;2022-11-24T11:12:21;12.20;48.80
3868;DHT22;1949;48.152;11.528;2022-11-24T11:14:48;12.10;48.90
3868;DHT22;1949;48.152;11.528;2022-11-24T11:17:37;12.10;49.10
3868;DHT22;1949;48.152;11.528;2022-11-24T11:20:16;12.00;49.10
3868;DHT22;1949;48.152;11.528;2022-11-24T11:22:44;12.00;49.10
3868;DHT22;1949;48.152;11.528;2022-11-24T11:25:34;11.90;49.20
3868;DHT22;1949;48.152;11.528;2022-11-24T11:28:26;11.90;49.50
3868;DHT22;1949;48.152;11.528;2022-11-24T11:33:26;11.90;49.60
3868;DHT22;1949;48.152;11.528;2022-11-24T11:35:57;11.90;49.40
3868;DHT22;1949;48.152;11.528;2022-11-24T11:38:30;11.90;49.60
3868;DHT22;1949;48.152;11.528;2022-11-24T11:40:58;11.90;49.70
3868;DHT22;1949;48.152;11.528;2022-11-24T11:43:28;11.90;49.80
3868;DHT22;1949;48.152;11.528;2022-11-24T11:46:02;11.90;49.90
3868;DHT22;1949;48.152;11.528;2022-11-24T11:48:33;11.90;49.90
3868;DHT22;1949;48.152;11.528;2022-11-24T11:56:35;11.90;49.80
3868;DHT22;1949;48.152;11.528;2022-11-24T12:02:24;12.00;50.20
3868;DHT22;1949;48.152;11.528;2022-11-24T12:05:04;12.00;50.00
3868;DHT22;1949;48.152;11.528;2022-11-24T12:08:10;12.00;49.90
3868;DHT22;1949;48.152;11.528;2022-11-24T12:10:44;12.00;50.00
3868;DHT22;1949;48.152;11.528;2022-11-24T12:24:34;12.20;49.90
3868;DHT22;1949;48.152;11.528;2022-11-24T12:30:13;12.20;50.00
3868;DHT22;1949;48.152;11.528;2022-11-24T12:35:51;12.20;50.20
3868;DHT22;1949;48.152;11.528;2022-11-24T12:41:37;12.20;50.10
3868;DHT22;1949;48.152;11.528;2022-11-24T12:44:39;12.20;50.10
3868;DHT22;1949;48.152;11.528;2022-11-24T12:47:17;12.20;50.20
3868;DHT22;1949;48.152;11.528;2022-11-24T12:49:49;12.30;50.30
3868;DHT22;1949;48.152;11.528;2022-11-24T12:52:34;12.30;50.50
3868;DHT22;1949;48.152;11.528;2022-11-24T12:55:02;12.40;50.60
3868;DHT22;1949;48.152;11.528;2022-11-24T12:57:38;12.30;50.70
3868;DHT22;1949;48.152;11.528;2022-11-24T13:03:09;12.40;50.40
3868;DHT22;1949;48.152;11.528;2022-11-24T13:05:56;12.40;50.60
3868;DHT22;1949;48.152;11.528;2022-11-24T13:08:26;12.40;50.50
3868;DHT22;1949;48.152;11.528;2022-11-24T13:10:52;12.50;50.50
3868;DHT22;1949;48.152;11.528;2022-11-24T13:13:18;12.40;50.40
3868;DHT22;1949;48.152;11.528;2022-11-24T13:18:41;12.40;50.80
3868;DHT22;1949;48.152;11.528;2022-11-24T13:23:59;12.30;50.50
3868;DHT22;1949;48.152;11.528;2022-11-24T13:26:29;12.30;50.70
3868;DHT22;1949;48.152;11.528;2022-11-24T13:29:03;12.30;50.70
3868;DHT22;1949;48.152;11.528;2022-11-24T13:31:30;12.30;51.20
3868;DHT22;1949;48.152;11.528;2022-11-24T13:33:57;12.40;50.90
3868;DHT22;1949;48.152;11.528;2022-11-24T13:44:22;12.60;51.00
3868;DHT22;1949;48.152;11.528;2022-11-24T13:47:03;12.60;50.80
3868;DHT22;1949;48.152;11.528;2022-11-24T13:49:42;12.60;50.90
3868;DHT22;1949;48.152;11.528;2022-11-24T13:55:23;12.60;50.80
3868;DHT22;1949;48.152;11.528;2022-11-24T14:01:05;12.70;51.00
3868;DHT22;1949;48.152;11.528;2022-11-24T14:14:41;12.70;50.90
3868;DHT22;1949;48.152;11.528;2022-11-24T14:19:50;12.80;50.90
3868;DHT22;1949;48.152;11.528;2022-11-24T14:22:18;12.80;50.80
3868;DHT22;1949;48.152;11.528;2022-11-24T14:24:54;12.80;50.70
3868;DHT22;1949;48.152;11.528;2022-11-24T14:27:26;12.90;50.80
3868;DHT22;1949;48.152;11.528;2022-11-24T14:30:14;12.90;50.90
3868;DHT22;1949;48.152;11.528;2022-11-24T14:32:59;12.80;50.60
3868;DHT22;1949;48.152;11.528;2022-11-24T14:35:31;12.90;50.70
3868;DHT22;1949;48.152;11.528;2022-11-24T14:37:58;12.80;50.60
3868;DHT22;1949;48.152;11.528;2022-11-24T14:40:49;12.80;50.50
3868;DHT22;1949;48.152;11.528;2022-11-24T14:45:53;12.80;50.40
3868;DHT22;1949;48.152;11.528;2022-11-24T14:48:47;12.70;50.40
3868;DHT22;1949;48.152;11.528;2022-11-24T14:51:26;12.70;50.40
3868;DHT22;1949;48.152;11.528;2022-11-24T14:53:59;12.70;50.30
3868;DHT22;1949;48.152;11.528;2022-11-24T14:56:36;12.60;50.00
3868;DHT22;1949;48.152;11.528;2022-11-24T14:59:22;12.60;50.00
3868;DHT22;1949;48.152;11.528;2022-11-24T15:01:50;12.40;49.80
3868;DHT22;1949;48.152;11.528;2022-11-24T15:04:27;12.30;50.00
3868;DHT22;1949;48.152;11.528;2022-11-24T15:09:58;12.30;50.20
3868;DHT22;1949;48.152;11.528;2022-11-24T15:12:41;12.20;50.30
3868;DHT22;1949;48.152;11.528;2022-11-24T15:17:48;12.30;50.40
3868;DHT22;1949;48.152;11.528;2022-11-24T15:25:44;12.30;50.40
3868;DHT22;1949;48.152;11.528;2022-11-24T15:28:13;12.30;50.40
3868;DHT22;1949;48.152;11.528;2022-11-24T15:30:38;12.30;50.30
3868;DHT22;1949;48.152;11.528;2022-11-24T15:33:12;12.40;50.50
3868;DHT22;1949;48.152;11.528;2022-11-24T15:35:39;12.40;50.50
3868;DHT22;1949;48.152;11.528;2022-11-24T15:38:04;12.40;50.40
3868;DHT22;1949;48.152;11.528;2022-11-24T15:40:32;12.40;50.30
3868;DHT22;1949;48.152;11.528;2022-11-24T15:42:59;12.40;50.30
3868;DHT22;1949;48.152;11.528;2022-11-24T15:45:25;12.40;50.40
3868;DHT22;1949;48.152;11.528;2022-11-24T15:47:55;12.40;50.40
3868;DHT22;1949;48.152;11.528;2022-11-24T15:50:21;12.40;50.40
3868;DHT22;1949;48.152;11.528;2022-11-24T15:52:47;12.40;50.30
3868;DHT22;1949;48.152;11.528;2022-11-24T15:55:18;12.40;50.40
3868;DHT22;1949;48.152;11.528;2022-11-24T15:57:45;12.40;50.50
3868;DHT22;1949;48.152;11.528;2022-11-24T16:00:19;12.40;50.50
3868;DHT22;1949;48.152;11.528;2022-11-24T16:02:46;12.40;50.50
3868;DHT22;1949;48.152;11.528;2022-11-24T16:05:15;12.40;50.40
3868;DHT22;1949;48.152;11.528;2022-11-24T16:07:42;12.40;50.50
3868;DHT22;1949;48.152;11.528;2022-11-24T16:10:27;12.40;50.50
3868;DHT22;1949;48.152;11.528;2022-11-24T16:12:54;12.40;50.50
3868;DHT22;1949;48.152;11.528;2022-11-24T16:15:19;12.40;50.40
3868;DHT22;1949;48.152;11.528;2022-11-24T16:17:47;12.40;50.50
3868;DHT22;1949;48.152;11.528;2022-11-24T16:20:13;12.40;50.50
3868;DHT22;1949;48.152;11.528;2022-11-24T16:22:39;12.40;50.50
3868;DHT22;1949;48.152;11.528;2022-11-24T16:25:05;12.40;51.20
3868;DHT22;1949;48.152;11.528;2022-11-24T16:27:32;12.40;50.70
3868;DHT22;1949;48.152;11.528;2022-11-24T16:29:59;12.40;50.70
3868;DHT22;1949;48.152;11.528;2022-11-24T16:32:26;12.40;50.70
3868;DHT22;1949;48.152;11.528;2022-11-24T16:34:51;12.40;50.60
3868;DHT22;1949;48.152;11.528;2022-11-24T16:37:17;12.40;50.60
3868;DHT22;1949;48.152;11.528;2022-11-24T16:39:45;12.40;50.60
3868;DHT22;1949;48.152;11.528;2022-11-24T16:42:11;12.40;50.60
3868;DHT22;1949;48.152;11.528;2022-11-24T16:44:36;12.40;50.50
3868;DHT22;1949;48.152;11.528;2022-11-24T16:47:03;12.40;50.50
3868;DHT22;1949;48.152;11.528;2022-11-24T16:49:29;12.40;50.60
3868;DHT22;1949;48.152;11.528;2022-11-24T16:51:56;12.40;50.60
3868;DHT22;1949;48.152;11.528;2022-11-24T16:54:21;12.40;50.50
3868;DHT22;1949;48.152;11.528;2022-11-24T16:56:47;12.40;50.50
3868;DHT22;1949;48.152;11.528;2022-11-24T16:59:13;12.40;50.50
3868;DHT22;1949;48.152;11.528;2022-11-24T17:01:39;12.50;50.60
3868;DHT22;1949;48.152;11.528;2022-11-24T17:04:05;12.50;50.60
3868;DHT22;1949;48.152;11.528;2022-11-24T17:06:34;12.50;50.60
3868;DHT22;1949;48.152;11.528;2022-11-24T17:09:00;12.50;50.50
3868;DHT22;1949;48.152;11.528;2022-11-24T17:11:27;12.50;50.50
3868;DHT22;1949;48.152;11.528;2022-11-24T17:13:55;12.60;50.60
3868;DHT22;1949;48.152;11.528;2022-11-24T17:16:22;12.60;50.60
3868;DHT22;1949;48.152;11.528;2022-11-24T17:18:48;12.60;50.60
3868;DHT22;1949;48.152;11.528;2022-11-24T17:21:16;12.60;50.60
3868;DHT22;1949;48.152;11.528;2022-11-24T17:23:42;12.60;50.60
3868;DHT22;1949;48.152;11.528;2022-11-24T17:26:10;12.60;50.60
3868;DHT22;1949;48.152;11.528;2022-11-24T17:28:37;12.60;50.50
3868;DHT22;1949;48.152;11.528;2022-11-24T17:31:21;12.60;50.40
3868;DHT22;1949;48.152;11.528;2022-11-24T17:33:48;12.60;50.50
3868;DHT22;1949;48.152;11.528;2022-11-24T17:36:15;12.60;50.50
3868;DHT22;1949;48.152;11.528;2022-11-24T17:38:41;12.60;50.50
3868;DHT22;1949;48.152;11.528;2022-11-24T17:41:07;12.60;50.40
3868;DHT22;1949;48.152;11.528;2022-11-24T17:43:33;12.60;50.40
3868;DHT22;1949;48.152;11.528;2022-11-24T17:46:00;12.60;50.30
3868;DHT22;1949;48.152;11.528;2022-11-24T17:48:27;12.60;50.30